sensor_id;sensor_type;location;lat;lon;timestamp;temperature;humidity
16315;DHT22;8266;52.150;4.768;2023-04-24T00:01:34;13.10;99.90
16315;DHT22;8266;52.150;4.768;2023-04-24T00:04:02;13.10;99.90
16315;DHT22;8266;52.150;4.768;2023-04-24T00:06:29;13.10;99.90
16315;DHT22;8266;52.150;4.768;2023-04-24T00:08:58;13.10;99.90
16315;DHT22;8266;52.150;4.768;2023-04-24T00:11:26;13.10;99.90
16315;DHT22;8266;52.150;4.768;2023-04-24T00:13:54;13.10;99.90
16315;DHT22;8266;52.150;4.768;2023-04-24T00:16:21;13.10;99.90
16315;DHT22;8266;52.150;4.768;2023-04-24T00:18:48;13.00;99.90
16315;DHT22;8266;52.150;4.768;2023-04-24T00:21:18;13.00;99.90
16315;DHT22;8266;52.150;4.768;2023-04-24T00:23:46;13.00;99.90
16315;DHT22;8266;52.150;4.768;2023-04-24T00:26:13;13.00;99.90
16315;DHT22;8266;52.150;4.768;2023-04-24T00:28:40;12.90;99.90
16315;DHT22;8266;52.150;4.768;2023-04-24T00:31:09;12.90;99.90
16315;DHT22;8266;52.150;4.768;2023-04-24T00:33:36;12.90;99.90
16315;DHT22;8266;52.150;4.768;2023-04-24T00:36:03;12.90;99.90
16315;DHT22;8266;52.150;4.768;2023-04-24T00:38:30;12.90;99.90
16315;DHT22;8266;52.150;4.768;2023-04-24T00:40:57;12.90;99.90
16315;DHT22;8266;52.150;4.768;2023-04-24T00:43:24;12.90;99.90
16315;DHT22;8266;52.150;4.768;2023-04-24T00:45:51;12.80;99.90
16315;DHT22;8266;52.150;4.768;2023-04-24T00:48:20;12.80;99.90
16315;DHT22;8266;52.150;4.768;2023-04-24T00:50:47;12.80;99.90
16315;DHT22;8266;52.150;4.768;2023-04-24T00:53:14;12.80;99.90
16315;DHT22;8266;52.150;4.768;2023-04-24T00:55:42;12.80;99.90
16315;DHT22;8266;52.150;4.768;2023-04-24T00:58:09;12.80;99.90
16315;DHT22;8266;52.150;4.768;2023-04-24T01:00:36;12.80;99.90
16315;DHT22;8266;52.150;4.768;2023-04-24T01:03:04;12.80;99.90
16315;DHT22;8266;52.150;4.768;2023-04-24T01:05:34;12.80;99.90
16315;DHT22;8266;52.150;4.768;2023-04-24T01:08:01;12.80;99.90
16315;DHT22;8266;52.150;4.768;2023-04-24T01:10:29;12.80;99.90
16315;DHT22;8266;52.150;4.768;2023-04-24T01:12:58;12.70;99.90
16315;DHT22;8266;52.150;4.768;2023-04-24T01:15:25;12.70;99.90
16315;DHT22;8266;52.150;4.768;2023-04-24T01:17:52;12.70;99.90
16315;DHT22;8266;52.150;4.768;2023-04-24T01:20:19;12.70;99.90
16315;DHT22;8266;52.150;4.768;2023-04-24T01:22:48;12.60;99.90
16315;DHT22;8266;52.150;4.768;2023-04-24T01:25:15;12.70;99.90
16315;DHT22;8266;52.150;4.768;2023-04-24T01:27:42;12.70;99.90
16315;DHT22;8266;52.150;4.768;2023-04-24T01:30:10;12.70;99.90
16315;DHT22;8266;52.150;4.768;2023-04-24T01:32:37;12.70;99.90
16315;DHT22;8266;52.150;4.768;2023-04-24T01:35:06;12.60;99.90
16315;DHT22;8266;52.150;4.768;2023-04-24T01:37:33;12.70;99.90
16315;DHT22;8266;52.150;4.768;2023-04-24T01:40:04;12.70;99.90
16315;DHT22;8266;52.150;4.768;2023-04-24T01:42:32;12.70;99.90
16315;DHT22;8266;52.150;4.768;2023-04-24T01:44:59;12.70;99.90
16315;DHT22;8266;52.150;4.768;2023-04-24T01:47:27;12.70;99.90
16315;DHT22;8266;52.150;4.768;2023-04-24T01:49:55;12.70;99.90
16315;DHT22;8266;52.150;4.768;2023-04-24T01:52:22;12.70;99.90
16315;DHT22;8266;52.150;4.768;2023-04-24T01:54:49;12.70;99.90
16315;DHT22;8266;52.150;4.768;2023-04-24T01:57:17;12.70;99.90
16315;DHT22;8266;52.150;4.768;2023-04-24T01:59:44;12.70;99.90
16315;DHT22;8266;52.150;4.768;2023-04-24T02:02:11;12.70;99.90
16315;DHT22;8266;52.150;4.768;2023-04-24T02:04:38;12.80;99.90
16315;DHT22;8266;52.150;4.768;2023-04-24T02:07:05;12.70;99.90
16315;DHT22;8266;52.150;4.768;2023-04-24T02:09:33;12.70;99.90
16315;DHT22;8266;52.150;4.768;2023-04-24T02:12:00;12.80;99.90
16315;DHT22;8266;52.150;4.768;2023-04-24T02:14:28;12.80;99.90
16315;DHT22;8266;52.150;4.768;2023-04-24T02:16:55;12.70;99.90
16315;DHT22;8266;52.150;4.768;2023-04-24T02:19:23;12.80;99.90
16315;DHT22;8266;52.150;4.768;2023-04-24T02:21:50;12.80;99.90
16315;DHT22;8266;52.150;4.768;2023-04-24T02:24:17;12.70;99.90
16315;DHT22;8266;52.150;4.768;2023-04-24T02:26:44;12.70;99.90
16315;DHT22;8266;52.150;4.768;2023-04-24T02:29:11;12.70;99.90
16315;DHT22;8266;52.150;4.768;2023-04-24T02:31:39;12.70;99.90
16315;DHT22;8266;52.150;4.768;2023-04-24T02:34:06;12.70;99.90
16315;DHT22;8266;52.150;4.768;2023-04-24T02:36:33;12.70;99.90
16315;DHT22;8266;52.150;4.768;2023-04-24T02:39:00;12.70;99.90
16315;DHT22;8266;52.150;4.768;2023-04-24T02:41:27;12.70;99.90
16315;DHT22;8266;52.150;4.768;2023-04-24T02:43:57;12.70;99.90
16315;DHT22;8266;52.150;4.768;2023-04-24T02:46:24;12.70;99.90
16315;DHT22;8266;52.150;4.768;2023-04-24T02:48:52;12.70;99.90
16315;DHT22;8266;52.150;4.768;2023-04-24T02:51:19;12.70;99.90
16315;DHT22;8266;52.150;4.768;2023-04-24T02:53:46;12.70;99.90
16315;DHT22;8266;52.150;4.768;2023-04-24T02:56:13;12.70;99.90
16315;DHT22;8266;52.150;4.768;2023-04-24T02:58:40;12.70;99.90
16315;DHT22;8266;52.150;4.768;2023-04-24T03:01:07;12.60;99.90
16315;DHT22;8266;52.150;4.768;2023-04-24T03:03:35;12.70;99.90
16315;DHT22;8266;52.150;4.768;2023-04-24T03:06:04;12.70;99.90
16315;DHT22;8266;52.150;4.768;2023-04-24T03:08:31;12.70;99.90
16315;DHT22;8266;52.150;4.768;2023-04-24T03:10:58;12.60;99.90
16315;DHT22;8266;52.150;4.768;2023-04-24T03:13:25;12.70;99.90
16315;DHT22;8266;52.150;4.768;2023-04-24T03:15:52;12.70;99.90
16315;DHT22;8266;52.150;4.768;2023-04-24T03:18:19;12.70;99.90
16315;DHT22;8266;52.150;4.768;2023-04-24T03:20:46;12.70;99.90
16315;DHT22;8266;52.150;4.768;2023-04-24T03:23:15;12.70;99.90
16315;DHT22;8266;52.150;4.768;2023-04-24T03:25:42;12.70;99.90
16315;DHT22;8266;52.150;4.768;2023-04-24T03:28:09;12.70;99.90
16315;DHT22;8266;52.150;4.768;2023-04-24T03:30:36;12.70;99.90
16315;DHT22;8266;52.150;4.768;2023-04-24T03:33:03;12.70;99.90
16315;DHT22;8266;52.150;4.768;2023-04-24T03:35:30;12.60;99.90
16315;DHT22;8266;52.150;4.768;2023-04-24T03:37:57;12.70;99.90
16315;DHT22;8266;52.150;4.768;2023-04-24T03:40:25;12.60;99.90
16315;DHT22;8266;52.150;4.768;2023-04-24T03:42:54;12.70;99.90
16315;DHT22;8266;52.150;4.768;2023-04-24T03:45:21;12.70;99.90
16315;DHT22;8266;52.150;4.768;2023-04-24T03:47:48;12.60;99.90
16315;DHT22;8266;52.150;4.768;2023-04-24T03:50:15;12.60;99.90
16315;DHT22;8266;52.150;4.768;2023-04-24T03:52:42;12.70;99.90
16315;DHT22;8266;52.150;4.768;2023-04-24T03:55:09;12.70;99.90
16315;DHT22;8266;52.150;4.768;2023-04-24T03:57:39;12.70;99.90
16315;DHT22;8266;52.150;4.768;2023-04-24T04:00:07;12.70;99.90
16315;DHT22;8266;52.150;4.768;2023-04-24T04:02:35;12.70;99.90
16315;DHT22;8266;52.150;4.768;2023-04-24T04:05:02;12.60;99.90
16315;DHT22;8266;52.150;4.768;2023-04-24T04:07:29;12.60;99.90
16315;DHT22;8266;52.150;4.768;2023-04-24T04:09:56;12.60;99.90
16315;DHT22;8266;52.150;4.768;2023-04-24T04:12:23;12.60;99.90
16315;DHT22;8266;52.150;4.768;2023-04-24T04:14:51;12.50;99.90
16315;DHT22;8266;52.150;4.768;2023-04-24T04:17:18;12.50;99.90
16315;DHT22;8266;52.150;4.768;2023-04-24T04:19:45;12.50;99.90
16315;DHT22;8266;52.150;4.768;2023-04-24T04:22:12;12.40;99.90
16315;DHT22;8266;52.150;4.768;2023-04-24T04:24:39;12.40;99.90
16315;DHT22;8266;52.150;4.768;2023-04-24T04:27:06;12.40;99.90
16315;DHT22;8266;52.150;4.768;2023-04-24T04:29:33;12.40;99.90
16315;DHT22;8266;52.150;4.768;2023-04-24T04:32:02;12.30;99.90
16315;DHT22;8266;52.150;4.768;2023-04-24T04:34:29;12.30;99.90
16315;DHT22;8266;52.150;4.768;2023-04-24T04:36:57;12.20;99.90
16315;DHT22;8266;52.150;4.768;2023-04-24T04:39:26;12.20;99.90
16315;DHT22;8266;52.150;4.768;2023-04-24T04:41:55;12.20;99.90
16315;DHT22;8266;52.150;4.768;2023-04-24T04:44:22;12.20;99.90
16315;DHT22;8266;52.150;4.768;2023-04-24T04:46:50;12.20;99.90
16315;DHT22;8266;52.150;4.768;2023-04-24T04:49:20;12.20;99.90
16315;DHT22;8266;52.150;4.768;2023-04-24T04:51:47;12.10;99.90
16315;DHT22;8266;52.150;4.768;2023-04-24T04:54:14;12.10;99.90
16315;DHT22;8266;52.150;4.768;2023-04-24T04:56:41;12.10;99.90
16315;DHT22;8266;52.150;4.768;2023-04-24T04:59:08;12.10;99.90
16315;DHT22;8266;52.150;4.768;2023-04-24T05:01:36;12.20;99.90
16315;DHT22;8266;52.150;4.768;2023-04-24T05:04:03;12.20;99.90
16315;DHT22;8266;52.150;4.768;2023-04-24T05:06:31;12.20;99.90
16315;DHT22;8266;52.150;4.768;2023-04-24T05:08:58;12.20;99.90
16315;DHT22;8266;52.150;4.768;2023-04-24T05:11:25;12.20;99.90
16315;DHT22;8266;52.150;4.768;2023-04-24T05:13:52;12.20;99.90
16315;DHT22;8266;52.150;4.768;2023-04-24T05:16:19;12.10;99.90
16315;DHT22;8266;52.150;4.768;2023-04-24T05:18:46;12.20;99.90
16315;DHT22;8266;52.150;4.768;2023-04-24T05:21:13;12.20;99.90
16315;DHT22;8266;52.150;4.768;2023-04-24T05:23:42;12.10;99.90
16315;DHT22;8266;52.150;4.768;2023-04-24T05:26:09;12.10;99.90
16315;DHT22;8266;52.150;4.768;2023-04-24T05:28:36;12.10;99.90
16315;DHT22;8266;52.150;4.768;2023-04-24T05:31:03;12.10;99.90
16315;DHT22;8266;52.150;4.768;2023-04-24T05:33:30;12.00;99.90
16315;DHT22;8266;52.150;4.768;2023-04-24T05:35:57;12.00;99.90
16315;DHT22;8266;52.150;4.768;2023-04-24T05:38:24;11.90;99.90
16315;DHT22;8266;52.150;4.768;2023-04-24T05:40:52;11.90;99.90
16315;DHT22;8266;52.150;4.768;2023-04-24T05:43:19;11.80;99.90
16315;DHT22;8266;52.150;4.768;2023-04-24T05:45:46;11.80;99.90
16315;DHT22;8266;52.150;4.768;2023-04-24T05:48:13;11.70;99.90
16315;DHT22;8266;52.150;4.768;2023-04-24T05:50:40;11.70;99.90
16315;DHT22;8266;52.150;4.768;2023-04-24T05:53:07;11.70;99.90
16315;DHT22;8266;52.150;4.768;2023-04-24T05:55:36;11.60;99.90
16315;DHT22;8266;52.150;4.768;2023-04-24T05:58:04;11.60;99.90
16315;DHT22;8266;52.150;4.768;2023-04-24T06:00:32;11.50;99.90
16315;DHT22;8266;52.150;4.768;2023-04-24T06:02:59;11.50;99.90
16315;DHT22;8266;52.150;4.768;2023-04-24T06:05:26;11.50;99.90
16315;DHT22;8266;52.150;4.768;2023-04-24T06:07:53;11.50;99.90
16315;DHT22;8266;52.150;4.768;2023-04-24T06:10:20;11.40;99.90
16315;DHT22;8266;52.150;4.768;2023-04-24T06:12:48;11.40;99.90
16315;DHT22;8266;52.150;4.768;2023-04-24T06:15:16;11.40;99.90
16315;DHT22;8266;52.150;4.768;2023-04-24T06:17:43;11.30;99.90
16315;DHT22;8266;52.150;4.768;2023-04-24T06:20:10;11.30;99.90
16315;DHT22;8266;52.150;4.768;2023-04-24T06:22:37;11.30;99.90
16315;DHT22;8266;52.150;4.768;2023-04-24T06:25:06;11.30;99.90
16315;DHT22;8266;52.150;4.768;2023-04-24T06:27:33;11.30;99.90
16315;DHT22;8266;52.150;4.768;2023-04-24T06:30:00;11.30;99.90
16315;DHT22;8266;52.150;4.768;2023-04-24T06:32:29;11.30;99.90
16315;DHT22;8266;52.150;4.768;2023-04-24T06:34:56;11.30;99.90
16315;DHT22;8266;52.150;4.768;2023-04-24T06:37:23;11.30;99.90
16315;DHT22;8266;52.150;4.768;2023-04-24T06:39:50;11.30;99.90
16315;DHT22;8266;52.150;4.768;2023-04-24T06:42:17;11.30;99.90
16315;DHT22;8266;52.150;4.768;2023-04-24T06:44:46;11.30;99.90
16315;DHT22;8266;52.150;4.768;2023-04-24T06:47:13;11.30;99.90
16315;DHT22;8266;52.150;4.768;2023-04-24T06:49:42;11.30;99.90
16315;DHT22;8266;52.150;4.768;2023-04-24T06:52:09;11.30;99.90
16315;DHT22;8266;52.150;4.768;2023-04-24T06:54:36;11.30;99.90
16315;DHT22;8266;52.150;4.768;2023-04-24T06:57:03;11.30;99.90
16315;DHT22;8266;52.150;4.768;2023-04-24T06:59:30;11.30;99.90
16315;DHT22;8266;52.150;4.768;2023-04-24T07:01:57;11.30;99.90
16315;DHT22;8266;52.150;4.768;2023-04-24T07:04:24;11.30;99.90
16315;DHT22;8266;52.150;4.768;2023-04-24T07:06:53;11.30;99.90
16315;DHT22;8266;52.150;4.768;2023-04-24T07:09:25;11.30;99.90
16315;DHT22;8266;52.150;4.768;2023-04-24T07:11:53;11.40;99.90
16315;DHT22;8266;52.150;4.768;2023-04-24T07:14:22;11.40;99.90
16315;DHT22;8266;52.150;4.768;2023-04-24T07:16:49;11.40;99.90
16315;DHT22;8266;52.150;4.768;2023-04-24T07:19:16;11.40;99.90
16315;DHT22;8266;52.150;4.768;2023-04-24T07:21:43;11.50;99.90
16315;DHT22;8266;52.150;4.768;2023-04-24T07:24:11;11.50;99.90
16315;DHT22;8266;52.150;4.768;2023-04-24T07:26:38;11.50;99.90
16315;DHT22;8266;52.150;4.768;2023-04-24T07:29:06;11.50;99.90
16315;DHT22;8266;52.150;4.768;2023-04-24T07:31:33;11.50;99.90
16315;DHT22;8266;52.150;4.768;2023-04-24T07:34:00;11.50;99.90
16315;DHT22;8266;52.150;4.768;2023-04-24T07:36:27;11.50;99.90
16315;DHT22;8266;52.150;4.768;2023-04-24T07:38:54;11.50;99.90
16315;DHT22;8266;52.150;4.768;2023-04-24T07:41:24;11.60;99.90
16315;DHT22;8266;52.150;4.768;2023-04-24T07:43:51;11.60;99.90
16315;DHT22;8266;52.150;4.768;2023-04-24T07:46:19;11.60;99.90
16315;DHT22;8266;52.150;4.768;2023-04-24T07:48:46;11.70;99.90
16315;DHT22;8266;52.150;4.768;2023-04-24T07:51:14;11.70;99.90
16315;DHT22;8266;52.150;4.768;2023-04-24T07:53:41;11.70;99.90
16315;DHT22;8266;52.150;4.768;2023-04-24T07:56:08;11.80;99.90
16315;DHT22;8266;52.150;4.768;2023-04-24T07:58:36;11.80;99.90
16315;DHT22;8266;52.150;4.768;2023-04-24T08:01:03;11.80;99.90
16315;DHT22;8266;52.150;4.768;2023-04-24T08:03:31;11.80;99.90
16315;DHT22;8266;52.150;4.768;2023-04-24T08:05:58;11.90;99.90
16315;DHT22;8266;52.150;4.768;2023-04-24T08:08:25;11.90;99.90
16315;DHT22;8266;52.150;4.768;2023-04-24T08:10:52;11.90;99.90
16315;DHT22;8266;52.150;4.768;2023-04-24T08:13:18;11.90;99.90
16315;DHT22;8266;52.150;4.768;2023-04-24T08:15:47;11.90;99.90
16315;DHT22;8266;52.150;4.768;2023-04-24T08:18:14;11.90;99.90
16315;DHT22;8266;52.150;4.768;2023-04-24T08:20:41;11.90;99.90
16315;DHT22;8266;52.150;4.768;2023-04-24T08:23:08;11.80;99.90
16315;DHT22;8266;52.150;4.768;2023-04-24T08:25:35;11.80;99.90
16315;DHT22;8266;52.150;4.768;2023-04-24T08:28:03;11.80;99.90
16315;DHT22;8266;52.150;4.768;2023-04-24T08:30:30;11.90;99.90
16315;DHT22;8266;52.150;4.768;2023-04-24T08:32:58;11.90;99.90
16315;DHT22;8266;52.150;4.768;2023-04-24T08:35:25;11.90;99.90
16315;DHT22;8266;52.150;4.768;2023-04-24T08:37:53;11.90;99.90
16315;DHT22;8266;52.150;4.768;2023-04-24T08:40:23;11.90;99.90
16315;DHT22;8266;52.150;4.768;2023-04-24T08:42:54;11.90;99.90
16315;DHT22;8266;52.150;4.768;2023-04-24T08:45:23;12.00;99.90
16315;DHT22;8266;52.150;4.768;2023-04-24T08:47:50;12.00;99.90
16315;DHT22;8266;52.150;4.768;2023-04-24T08:50:20;12.10;99.90
16315;DHT22;8266;52.150;4.768;2023-04-24T08:52:50;12.00;99.90
16315;DHT22;8266;52.150;4.768;2023-04-24T08:55:18;12.10;99.90
16315;DHT22;8266;52.150;4.768;2023-04-24T08:57:50;12.20;99.90
16315;DHT22;8266;52.150;4.768;2023-04-24T09:00:19;12.20;99.90
16315;DHT22;8266;52.150;4.768;2023-04-24T09:02:48;12.20;99.90
16315;DHT22;8266;52.150;4.768;2023-04-24T09:05:17;12.30;99.90
16315;DHT22;8266;52.150;4.768;2023-04-24T09:07:50;12.30;99.90
16315;DHT22;8266;52.150;4.768;2023-04-24T09:10:20;12.20;99.90
16315;DHT22;8266;52.150;4.768;2023-04-24T09:12:47;12.20;99.90
16315;DHT22;8266;52.150;4.768;2023-04-24T09:15:15;12.20;99.90
16315;DHT22;8266;52.150;4.768;2023-04-24T09:17:43;12.20;99.90
16315;DHT22;8266;52.150;4.768;2023-04-24T09:20:10;12.10;99.90
16315;DHT22;8266;52.150;4.768;2023-04-24T09:22:37;12.10;99.90
16315;DHT22;8266;52.150;4.768;2023-04-24T09:25:07;12.10;99.90
16315;DHT22;8266;52.150;4.768;2023-04-24T09:27:35;12.20;99.90
16315;DHT22;8266;52.150;4.768;2023-04-24T09:30:02;12.20;99.90
16315;DHT22;8266;52.150;4.768;2023-04-24T09:32:30;12.20;99.90
16315;DHT22;8266;52.150;4.768;2023-04-24T09:35:08;12.20;99.90
16315;DHT22;8266;52.150;4.768;2023-04-24T09:37:36;12.20;99.90
16315;DHT22;8266;52.150;4.768;2023-04-24T09:40:13;12.20;99.90
16315;DHT22;8266;52.150;4.768;2023-04-24T09:45:10;12.20;99.90
16315;DHT22;8266;52.150;4.768;2023-04-24T09:47:37;12.20;99.90
16315;DHT22;8266;52.150;4.768;2023-04-24T09:50:15;12.20;99.90
16315;DHT22;8266;52.150;4.768;2023-04-24T09:52:47;12.20;99.90
16315;DHT22;8266;52.150;4.768;2023-04-24T09:55:19;12.20;99.90
16315;DHT22;8266;52.150;4.768;2023-04-24T09:57:51;12.30;99.90
16315;DHT22;8266;52.150;4.768;2023-04-24T10:00:20;12.40;99.90
16315;DHT22;8266;52.150;4.768;2023-04-24T10:02:55;12.50;99.90
16315;DHT22;8266;52.150;4.768;2023-04-24T10:05:24;12.50;99.90
16315;DHT22;8266;52.150;4.768;2023-04-24T10:07:51;12.40;99.90
16315;DHT22;8266;52.150;4.768;2023-04-24T10:10:20;12.40;99.90
16315;DHT22;8266;52.150;4.768;2023-04-24T10:12:47;12.40;99.90
16315;DHT22;8266;52.150;4.768;2023-04-24T10:15:15;12.30;99.90
16315;DHT22;8266;52.150;4.768;2023-04-24T10:17:47;12.40;99.90
16315;DHT22;8266;52.150;4.768;2023-04-24T10:20:18;12.50;99.90
16315;DHT22;8266;52.150;4.768;2023-04-24T10:22:48;12.60;99.90
16315;DHT22;8266;52.150;4.768;2023-04-24T10:25:19;12.90;99.90
16315;DHT22;8266;52.150;4.768;2023-04-24T10:27:48;13.10;99.90
16315;DHT22;8266;52.150;4.768;2023-04-24T10:30:16;13.40;99.90
16315;DHT22;8266;52.150;4.768;2023-04-24T10:32:44;13.60;99.90
16315;DHT22;8266;52.150;4.768;2023-04-24T10:35:13;13.90;99.90
16315;DHT22;8266;52.150;4.768;2023-04-24T10:37:43;14.00;99.90
16315;DHT22;8266;52.150;4.768;2023-04-24T10:40:12;14.10;99.90
16315;DHT22;8266;52.150;4.768;2023-04-24T10:42:47;14.20;99.90
16315;DHT22;8266;52.150;4.768;2023-04-24T10:45:17;14.20;99.90
16315;DHT22;8266;52.150;4.768;2023-04-24T10:47:56;14.30;99.90
16315;DHT22;8266;52.150;4.768;2023-04-24T10:50:24;14.30;99.90
16315;DHT22;8266;52.150;4.768;2023-04-24T10:52:51;14.30;99.90
16315;DHT22;8266;52.150;4.768;2023-04-24T10:55:41;14.20;99.90
16315;DHT22;8266;52.150;4.768;2023-04-24T10:58:10;14.10;99.90
16315;DHT22;8266;52.150;4.768;2023-04-24T11:00:38;14.10;99.90
16315;DHT22;8266;52.150;4.768;2023-04-24T11:03:06;14.00;99.90
16315;DHT22;8266;52.150;4.768;2023-04-24T11:05:50;13.90;99.90
16315;DHT22;8266;52.150;4.768;2023-04-24T11:08:26;13.90;99.90
16315;DHT22;8266;52.150;4.768;2023-04-24T11:10:59;13.80;99.90
16315;DHT22;8266;52.150;4.768;2023-04-24T11:14:01;13.90;99.90
16315;DHT22;8266;52.150;4.768;2023-04-24T11:16:29;13.90;99.90
16315;DHT22;8266;52.150;4.768;2023-04-24T11:19:01;14.00;99.90
16315;DHT22;8266;52.150;4.768;2023-04-24T11:21:31;14.00;99.90
16315;DHT22;8266;52.150;4.768;2023-04-24T11:23:59;14.10;99.90
16315;DHT22;8266;52.150;4.768;2023-04-24T11:26:45;14.10;99.90
16315;DHT22;8266;52.150;4.768;2023-04-24T11:29:14;14.20;99.90
16315;DHT22;8266;52.150;4.768;2023-04-24T11:31:44;14.20;99.90
16315;DHT22;8266;52.150;4.768;2023-04-24T11:34:15;14.30;99.90
16315;DHT22;8266;52.150;4.768;2023-04-24T11:36:43;14.30;99.90
16315;DHT22;8266;52.150;4.768;2023-04-24T11:39:10;14.30;99.90
16315;DHT22;8266;52.150;4.768;2023-04-24T11:41:38;14.30;99.90
16315;DHT22;8266;52.150;4.768;2023-04-24T11:44:07;14.30;99.90
16315;DHT22;8266;52.150;4.768;2023-04-24T11:46:35;14.40;99.90
16315;DHT22;8266;52.150;4.768;2023-04-24T11:49:05;14.40;99.90
16315;DHT22;8266;52.150;4.768;2023-04-24T11:51:32;14.50;99.90
16315;DHT22;8266;52.150;4.768;2023-04-24T11:54:00;14.60;99.90
16315;DHT22;8266;52.150;4.768;2023-04-24T11:56:28;14.60;99.90
16315;DHT22;8266;52.150;4.768;2023-04-24T11:58:55;14.70;99.90
16315;DHT22;8266;52.150;4.768;2023-04-24T12:01:21;14.70;99.90
16315;DHT22;8266;52.150;4.768;2023-04-24T12:03:50;14.70;99.90
16315;DHT22;8266;52.150;4.768;2023-04-24T12:06:25;14.70;99.90
16315;DHT22;8266;52.150;4.768;2023-04-24T12:08:52;14.70;99.90
16315;DHT22;8266;52.150;4.768;2023-04-24T12:11:20;14.70;99.90
16315;DHT22;8266;52.150;4.768;2023-04-24T12:13:47;14.60;99.90
16315;DHT22;8266;52.150;4.768;2023-04-24T12:16:14;14.50;99.90
16315;DHT22;8266;52.150;4.768;2023-04-24T12:18:43;14.50;99.90
16315;DHT22;8266;52.150;4.768;2023-04-24T12:21:22;14.50;99.90
16315;DHT22;8266;52.150;4.768;2023-04-24T12:23:54;14.50;99.90
16315;DHT22;8266;52.150;4.768;2023-04-24T12:26:21;14.40;99.90
16315;DHT22;8266;52.150;4.768;2023-04-24T12:28:49;14.40;99.90
16315;DHT22;8266;52.150;4.768;2023-04-24T12:31:20;14.20;99.90
16315;DHT22;8266;52.150;4.768;2023-04-24T12:33:47;14.10;99.90
16315;DHT22;8266;52.150;4.768;2023-04-24T12:36:14;14.00;99.90
16315;DHT22;8266;52.150;4.768;2023-04-24T12:38:44;14.00;99.90
16315;DHT22;8266;52.150;4.768;2023-04-24T12:41:13;13.90;99.90
16315;DHT22;8266;52.150;4.768;2023-04-24T12:43:51;13.80;99.90
16315;DHT22;8266;52.150;4.768;2023-04-24T12:46:18;13.90;99.90
16315;DHT22;8266;52.150;4.768;2023-04-24T12:48:45;13.90;99.90
16315;DHT22;8266;52.150;4.768;2023-04-24T12:51:12;14.00;99.90
16315;DHT22;8266;52.150;4.768;2023-04-24T12:53:39;14.10;99.90
16315;DHT22;8266;52.150;4.768;2023-04-24T12:56:08;14.20;99.90
16315;DHT22;8266;52.150;4.768;2023-04-24T12:58:35;14.20;99.90
16315;DHT22;8266;52.150;4.768;2023-04-24T13:01:02;14.20;99.90
16315;DHT22;8266;52.150;4.768;2023-04-24T13:03:28;14.30;99.90
16315;DHT22;8266;52.150;4.768;2023-04-24T13:05:55;14.30;99.90
16315;DHT22;8266;52.150;4.768;2023-04-24T13:08:22;14.40;99.90
16315;DHT22;8266;52.150;4.768;2023-04-24T13:10:49;14.60;99.90
16315;DHT22;8266;52.150;4.768;2023-04-24T13:13:19;14.70;99.90
16315;DHT22;8266;52.150;4.768;2023-04-24T13:15:46;14.90;99.90
16315;DHT22;8266;52.150;4.768;2023-04-24T13:18:13;15.10;99.90
16315;DHT22;8266;52.150;4.768;2023-04-24T13:20:40;15.20;99.90
16315;DHT22;8266;52.150;4.768;2023-04-24T13:23:07;15.30;99.90
16315;DHT22;8266;52.150;4.768;2023-04-24T13:25:36;15.40;99.90
16315;DHT22;8266;52.150;4.768;2023-04-24T13:28:04;15.50;99.90
16315;DHT22;8266;52.150;4.768;2023-04-24T13:30:33;15.50;99.90
16315;DHT22;8266;52.150;4.768;2023-04-24T13:33:00;15.50;99.90
16315;DHT22;8266;52.150;4.768;2023-04-24T13:35:27;15.50;99.90
16315;DHT22;8266;52.150;4.768;2023-04-24T13:37:54;15.50;99.90
16315;DHT22;8266;52.150;4.768;2023-04-24T13:40:21;15.40;99.90
16315;DHT22;8266;52.150;4.768;2023-04-24T13:42:48;15.40;99.90
16315;DHT22;8266;52.150;4.768;2023-04-24T13:45:15;15.30;99.90
16315;DHT22;8266;52.150;4.768;2023-04-24T13:47:43;15.20;99.90
16315;DHT22;8266;52.150;4.768;2023-04-24T13:50:11;15.10;99.90
16315;DHT22;8266;52.150;4.768;2023-04-24T13:52:38;15.10;99.90
16315;DHT22;8266;52.150;4.768;2023-04-24T13:55:06;15.00;99.90
16315;DHT22;8266;52.150;4.768;2023-04-24T13:57:33;15.00;99.90
16315;DHT22;8266;52.150;4.768;2023-04-24T14:00:00;15.00;99.90
16315;DHT22;8266;52.150;4.768;2023-04-24T14:02:29;15.00;99.90
16315;DHT22;8266;52.150;4.768;2023-04-24T14:04:57;15.00;99.90
16315;DHT22;8266;52.150;4.768;2023-04-24T14:07:24;14.90;99.90
16315;DHT22;8266;52.150;4.768;2023-04-24T14:09:51;14.90;99.90
16315;DHT22;8266;52.150;4.768;2023-04-24T14:12:18;14.70;99.90
16315;DHT22;8266;52.150;4.768;2023-04-24T14:14:46;14.70;99.90
16315;DHT22;8266;52.150;4.768;2023-04-24T14:17:14;14.70;99.90
16315;DHT22;8266;52.150;4.768;2023-04-24T14:19:41;14.70;99.90
16315;DHT22;8266;52.150;4.768;2023-04-24T14:22:09;14.80;99.90
16315;DHT22;8266;52.150;4.768;2023-04-24T14:24:36;14.80;99.90
16315;DHT22;8266;52.150;4.768;2023-04-24T14:27:03;14.90;99.90
16315;DHT22;8266;52.150;4.768;2023-04-24T14:29:31;15.00;99.90
16315;DHT22;8266;52.150;4.768;2023-04-24T14:31:57;15.10;99.90
16315;DHT22;8266;52.150;4.768;2023-04-24T14:34:25;15.10;99.90
16315;DHT22;8266;52.150;4.768;2023-04-24T14:36:52;15.10;99.90
16315;DHT22;8266;52.150;4.768;2023-04-24T14:39:21;15.00;99.90
16315;DHT22;8266;52.150;4.768;2023-04-24T14:41:48;15.00;99.90
16315;DHT22;8266;52.150;4.768;2023-04-24T14:44:15;15.00;99.90
16315;DHT22;8266;52.150;4.768;2023-04-24T14:46:42;15.00;99.90
16315;DHT22;8266;52.150;4.768;2023-04-24T14:49:09;15.00;99.90
16315;DHT22;8266;52.150;4.768;2023-04-24T14:51:38;15.00;99.90
16315;DHT22;8266;52.150;4.768;2023-04-24T14:54:06;15.00;99.90
16315;DHT22;8266;52.150;4.768;2023-04-24T14:56:35;14.90;99.90
16315;DHT22;8266;52.150;4.768;2023-04-24T14:59:02;14.80;99.90
16315;DHT22;8266;52.150;4.768;2023-04-24T15:01:29;14.70;99.90
16315;DHT22;8266;52.150;4.768;2023-04-24T15:03:56;14.70;99.90
16315;DHT22;8266;52.150;4.768;2023-04-24T15:06:23;14.60;99.90
16315;DHT22;8266;52.150;4.768;2023-04-24T15:08:50;14.60;99.90
16315;DHT22;8266;52.150;4.768;2023-04-24T15:11:18;14.60;99.90
16315;DHT22;8266;52.150;4.768;2023-04-24T15:13:47;14.50;99.90
16315;DHT22;8266;52.150;4.768;2023-04-24T15:16:14;14.50;99.90
16315;DHT22;8266;52.150;4.768;2023-04-24T15:18:41;14.50;99.90
16315;DHT22;8266;52.150;4.768;2023-04-24T15:21:08;14.40;99.90
16315;DHT22;8266;52.150;4.768;2023-04-24T15:23:35;14.40;99.90
16315;DHT22;8266;52.150;4.768;2023-04-24T15:26:02;14.40;99.90
16315;DHT22;8266;52.150;4.768;2023-04-24T15:28:29;14.30;99.90
16315;DHT22;8266;52.150;4.768;2023-04-24T15:30:57;14.30;99.90
16315;DHT22;8266;52.150;4.768;2023-04-24T15:33:25;14.30;99.90
16315;DHT22;8266;52.150;4.768;2023-04-24T15:35:52;14.30;99.90
16315;DHT22;8266;52.150;4.768;2023-04-24T15:38:19;14.20;99.90
16315;DHT22;8266;52.150;4.768;2023-04-24T15:40:46;14.20;99.90
16315;DHT22;8266;52.150;4.768;2023-04-24T15:43:14;14.10;99.90
16315;DHT22;8266;52.150;4.768;2023-04-24T15:45:42;14.10;99.90
16315;DHT22;8266;52.150;4.768;2023-04-24T15:48:12;14.10;99.90
16315;DHT22;8266;52.150;4.768;2023-04-24T15:50:39;14.10;99.90
16315;DHT22;8266;52.150;4.768;2023-04-24T15:53:06;14.00;99.90